LIPE/BLQ METAR and TAF weather

Enter ICAO airport designator
Station Type Date Time Source
LIPE METAR 2020/03/31 08:50 UTC NOAA

LIPE 310850Z 06008KT 020V090 9999 FEW035 08/01 Q1022


Station Type Date Time Source
LIPE Decoded METAR 2020/03/31 08:50 UTC NOAA

Bologna / Borgo Panigale, Italy (LIPE) 44-32N 011-18E 49M
Mar 31, 2020 - 04:50 AM EDT / 2020.03.31 0850 UTC
Wind: from the ENE (060 degrees) at 9 MPH (8 KT) (direction variable):0
Visibility: greater than 7 mile(s):0
Sky conditions: mostly clear
Temperature: 46 F (8 C)
Dew Point: 33 F (1 C)
Relative Humidity: 61%
Pressure (altimeter): 30.18 in. Hg (1022 hPa)
ob: LIPE 310850Z 06008KT 020V090 9999 FEW035 08/01 Q1022
cycle: 9

Station Type Date Time Source
LIPE TAF 2020/03/31 06:22 UTC NOAA

TAF LIPE 310500Z 3106/0106 05012KT 9999 SCT050
BECMG 3116/3118 VRB05KT

Example: see airport list